Samui, Thailand

10:56 AM ICT on February 10, 2016 (GMT +0700)
Samui | | Change Station
CLOSE
Current Station
Airport
Location: Samui,
Elevation: 66 ft
Nearby Weather Stations

Elev 66 ft 9.55 °N, 100.06 °E | Updated 56 minutes ago

Partly Cloudy
Partly Cloudy
86 °F
Feels Like 90 °F
N
12
Wind Variable Wind from SE

Today
High -- | Low -- °F
--% Chance of Precip.
Yesterday
High -- | Low -- °F
Precip. -- in
Pressure 29.98 in
Visibility 3.7 miles
Clouds Few 2000 ft
Heat Index 90 °F
Dew Point 70 °F
Humidity 58%
Rainfall 0.00 in
Snow Depth Not available.
6:40 AM 6:27 PM
Waxing Crescent, 3% visible
METAR VTSM 100300Z 13010KT 6000 FEW020 30/21 Q1015 A2998
Pressure 29.98 in
Visibility 3.7 miles
Clouds Few 2000 ft
Heat Index 90 °F
Dew Point 70 °F
Humidity 58%
Rainfall 0.00 in
Snow Depth Not available.
6:40 AM 6:27 PM
Waxing Crescent, 3% visible
METAR VTSM 100300Z 13010KT 6000 FEW020 30/21 Q1015 A2998

10-Day Weather Forecast

No radar image for this location.
×

Almanac

Astronomy

Feb. 10, 2016 Rise Set
Actual Time
Civil Twilight
Nautical Twilight
Astronomical Twilight
Moon
Length of Visible Light
Length of Day
Tomorrow will be .
, % of the Moon is Illuminated

Today's Extremes

Country Highs Country Lows

Community

WunderPhotos

Upload Photos

1,891,792 photos uploaded!

WunderBlog® & News

Nearby

Air Quality

  Air Quality AQ Index Pollutant
Not available.

Snow Depth

Station Depth Elevation

Earthquake Activity

City Distance Mag. Time & Date
Minimum magnitude displayed is 2.5.

Coastal Water Temperatures

Place Temperature

Stations

Nearby Weather Stations

Station Location Temp. Windchill Dew Point Humidity Wind Precip. Elev Updated Type